createdAt,value
2023-03-04T00:01:00.155Z,0.57
2023-03-04T00:03:37.349Z,0.56
2023-03-04T00:06:15.554Z,0.56
2023-03-04T00:08:51.824Z,0.56
2023-03-04T00:11:28.209Z,0.57
2023-03-04T00:14:04.616Z,0.59
2023-03-04T00:16:41.251Z,0.59
2023-03-04T00:19:17.787Z,0.59
2023-03-04T00:21:54.481Z,0.60
2023-03-04T00:24:31.428Z,0.59
2023-03-04T00:27:08.482Z,0.58
2023-03-04T00:29:45.177Z,0.58
2023-03-04T00:32:22.106Z,0.58
2023-03-04T00:34:59.275Z,0.58
2023-03-04T00:37:36.435Z,0.57
2023-03-04T00:40:16.526Z,0.57
2023-03-04T00:42:53.158Z,0.58
2023-03-04T00:45:29.732Z,0.58
2023-03-04T00:48:06.742Z,0.58
2023-03-04T00:50:43.238Z,0.57
2023-03-04T00:53:19.703Z,0.57
2023-03-04T00:55:56.121Z,0.57
2023-03-04T00:58:32.530Z,0.57
2023-03-04T01:01:10.902Z,0.57
2023-03-04T01:03:47.336Z,0.56
2023-03-04T01:06:23.638Z,0.57
2023-03-04T01:09:00.103Z,0.56
2023-03-04T01:11:36.487Z,0.54
2023-03-04T01:14:12.925Z,0.54
2023-03-04T01:16:49.485Z,0.54
2023-03-04T01:19:26.270Z,0.55
2023-03-04T01:22:03.520Z,0.55
2023-03-04T01:24:39.924Z,0.54
2023-03-04T01:27:16.421Z,0.55
2023-03-04T01:29:53.471Z,0.55
2023-03-04T01:32:30.189Z,0.56
2023-03-04T01:35:11.253Z,0.57
2023-03-04T01:37:47.691Z,0.58
2023-03-04T01:40:24.818Z,0.59
2023-03-04T01:43:01.458Z,0.60
2023-03-04T01:45:40.273Z,0.61
2023-03-04T01:48:23.321Z,0.62
2023-03-04T01:51:03.237Z,0.63
2023-03-04T01:53:40.870Z,0.64
2023-03-04T01:56:29.384Z,0.65
2023-03-04T01:59:24.831Z,0.66
2023-03-04T02:02:03.455Z,0.65
2023-03-04T02:04:40.655Z,0.65
2023-03-04T02:07:17.139Z,0.65
2023-03-04T02:09:54.151Z,0.65
2023-03-04T02:12:30.718Z,0.66
2023-03-04T02:15:11.183Z,0.65
2023-03-04T02:17:47.624Z,0.66
2023-03-04T02:20:43.769Z,0.67
2023-03-04T02:23:32.283Z,0.67
2023-03-04T02:26:20.419Z,0.68
2023-03-04T02:29:01.638Z,0.68
2023-03-04T02:31:42.126Z,0.69
2023-03-04T02:34:22.956Z,0.70
2023-03-04T02:37:01.120Z,0.72
2023-03-04T02:39:44.052Z,0.73
2023-03-04T02:42:20.867Z,0.75
2023-03-04T02:45:06.845Z,0.75
2023-03-04T02:47:44.182Z,0.75
2023-03-04T02:50:21.148Z,0.77
2023-03-04T02:52:57.516Z,0.78
2023-03-04T02:55:34.114Z,0.78
2023-03-04T02:58:10.788Z,0.77
2023-03-04T03:00:47.669Z,0.78
2023-03-04T03:03:24.361Z,0.79
2023-03-04T03:06:01.497Z,0.79
2023-03-04T03:08:38.094Z,0.80
2023-03-04T03:11:14.504Z,0.80
2023-03-04T03:13:50.751Z,0.81
2023-03-04T03:16:27.954Z,0.81
2023-03-04T03:19:04.708Z,0.81
2023-03-04T03:21:41.247Z,0.82
2023-03-04T03:24:17.698Z,0.81
2023-03-04T03:26:54.004Z,0.81
2023-03-04T03:29:30.709Z,0.82
2023-03-04T03:32:09.066Z,0.81
2023-03-04T03:34:45.506Z,0.81
2023-03-04T03:37:22.159Z,0.82
2023-03-04T03:39:58.402Z,0.83
2023-03-04T03:42:34.868Z,0.84
2023-03-04T03:45:14.141Z,0.85
2023-03-04T03:47:50.413Z,0.86
2023-03-04T03:50:26.825Z,0.88
2023-03-04T03:53:03.880Z,0.89
2023-03-04T03:55:40.254Z,0.89
2023-03-04T03:58:16.626Z,0.91
2023-03-04T04:00:52.987Z,0.92
2023-03-04T04:03:29.613Z,0.93
2023-03-04T04:06:06.626Z,0.92
2023-03-04T04:08:43.558Z,0.93
2023-03-04T04:11:20.187Z,0.94
2023-03-04T04:13:56.758Z,0.94
2023-03-04T04:16:33.332Z,0.94
2023-03-04T04:19:11.725Z,0.93
2023-03-04T04:21:48.642Z,0.94
2023-03-04T04:24:25.958Z,0.93
2023-03-04T04:27:02.609Z,0.94
2023-03-04T04:29:38.962Z,0.93
2023-03-04T04:32:15.532Z,0.93
2023-03-04T04:34:51.882Z,0.93
2023-03-04T04:37:28.263Z,0.92
2023-03-04T04:40:05.441Z,0.92
2023-03-04T04:42:41.900Z,0.91
2023-03-04T04:45:19.016Z,0.91
2023-03-04T04:47:57.556Z,0.91
2023-03-04T04:50:33.972Z,0.91
2023-03-04T04:53:11.595Z,0.90
2023-03-04T04:55:47.851Z,0.90
2023-03-04T04:58:24.292Z,0.89
2023-03-04T05:01:02.488Z,0.89
2023-03-04T05:03:40.310Z,0.90
2023-03-04T05:06:17.752Z,0.90
2023-03-04T05:08:54.405Z,0.89
2023-03-04T05:11:31.117Z,0.89
2023-03-04T05:14:07.432Z,0.89
2023-03-04T05:16:43.877Z,0.87
2023-03-04T05:19:20.645Z,0.79
2023-03-04T05:21:57.117Z,0.68
2023-03-04T05:24:34.933Z,0.58
2023-03-04T05:27:11.693Z,0.50
2023-03-04T05:29:48.068Z,0.42
2023-03-04T05:32:24.438Z,0.38
2023-03-04T05:35:00.678Z,0.35
2023-03-04T05:37:37.054Z,0.31
2023-03-04T05:40:16.905Z,0.28
2023-03-04T05:42:53.486Z,0.29
2023-03-04T05:45:30.858Z,0.30
2023-03-04T05:48:08.751Z,0.33
2023-03-04T05:50:45.104Z,0.37
2023-03-04T05:53:21.951Z,0.40
2023-03-04T05:56:00.064Z,0.43
2023-03-04T05:58:36.703Z,0.46
2023-03-04T06:01:14.326Z,0.50
2023-03-04T06:03:51.836Z,0.54
2023-03-04T06:06:32.128Z,0.59
2023-03-04T06:09:08.810Z,0.65
2023-03-04T06:11:45.530Z,0.72
2023-03-04T06:14:22.727Z,0.78
2023-03-04T06:16:59.083Z,0.85
2023-03-04T06:19:35.594Z,0.92
2023-03-04T06:22:12.909Z,0.98
2023-03-04T06:24:49.244Z,1.04
2023-03-04T06:27:26.348Z,1.08
2023-03-04T06:30:03.029Z,1.14
2023-03-04T06:32:40.499Z,1.21
2023-03-04T06:35:18.221Z,1.28
2023-03-04T06:37:54.720Z,1.35
2023-03-04T06:40:31.125Z,1.41
2023-03-04T06:43:08.332Z,1.48
2023-03-04T06:45:46.540Z,1.53
2023-03-04T06:48:23.046Z,1.59
2023-03-04T06:51:05.694Z,1.64
2023-03-04T06:53:42.980Z,1.70
2023-03-04T06:56:19.576Z,1.74
2023-03-04T06:58:56.039Z,1.77
2023-03-04T07:01:34.865Z,1.78
2023-03-04T07:04:11.500Z,1.81
2023-03-04T07:06:48.048Z,1.86
2023-03-04T07:09:24.341Z,1.90
2023-03-04T07:12:00.629Z,1.91
2023-03-04T07:14:37.235Z,1.92
2023-03-04T07:17:13.554Z,1.95
2023-03-04T07:19:49.922Z,1.97
2023-03-04T07:22:26.286Z,1.96
2023-03-04T07:25:02.752Z,1.94
2023-03-04T07:27:40.988Z,1.92
2023-03-04T07:30:19.601Z,1.89
2023-03-04T07:32:58.158Z,1.84
2023-03-04T07:35:34.637Z,1.81
2023-03-04T07:38:11.264Z,1.80
2023-03-04T07:40:55.810Z,1.81
2023-03-04T07:43:32.207Z,1.83
2023-03-04T07:46:08.981Z,1.87
2023-03-04T07:48:45.580Z,1.88
2023-03-04T07:51:25.234Z,1.88
2023-03-04T07:54:04.193Z,1.85
2023-03-04T07:56:40.774Z,1.82
2023-03-04T07:59:17.167Z,1.79
2023-03-04T08:01:54.406Z,1.74
2023-03-04T08:04:30.922Z,1.69
2023-03-04T08:07:07.201Z,1.67
2023-03-04T08:09:43.704Z,1.65
2023-03-04T08:12:20.194Z,1.63
2023-03-04T08:14:57.143Z,1.60
2023-03-04T08:17:33.469Z,1.56
2023-03-04T08:20:13.335Z,1.52
2023-03-04T08:22:49.670Z,1.49
2023-03-04T08:25:26.112Z,1.47
2023-03-04T08:28:03.381Z,1.47
2023-03-04T08:30:40.044Z,1.48
2023-03-04T08:33:16.497Z,1.47
2023-03-04T08:35:52.815Z,1.46
2023-03-04T08:38:29.476Z,1.48
2023-03-04T08:41:06.419Z,1.52
2023-03-04T08:43:42.693Z,1.57
2023-03-04T08:46:19.097Z,1.61
2023-03-04T08:48:55.423Z,1.65
2023-03-04T08:51:32.290Z,1.68
2023-03-04T08:54:09.510Z,1.69
2023-03-04T08:56:46.642Z,1.68
2023-03-04T08:59:22.954Z,1.65
2023-03-04T09:01:59.325Z,1.66
2023-03-04T09:04:35.975Z,1.66
2023-03-04T09:07:12.588Z,1.67
2023-03-04T09:09:48.807Z,1.67
2023-03-04T09:12:25.878Z,1.68
2023-03-04T09:15:11.112Z,1.68
2023-03-04T09:17:48.244Z,1.69
2023-03-04T09:20:24.867Z,1.70
2023-03-04T09:23:01.727Z,1.73
2023-03-04T09:25:38.075Z,1.76
2023-03-04T09:28:15.482Z,1.79
2023-03-04T09:30:51.926Z,1.81
2023-03-04T09:33:28.590Z,1.83
2023-03-04T09:36:05.357Z,1.84
2023-03-04T09:38:43.093Z,1.87
2023-03-04T09:41:38.524Z,1.90
2023-03-04T09:44:25.816Z,1.95
2023-03-04T09:47:07.362Z,1.99
2023-03-04T09:49:49.553Z,1.99
2023-03-04T09:52:46.313Z,2.02
2023-03-04T09:55:32.425Z,2.05
2023-03-04T09:58:37.248Z,2.11
2023-03-04T10:01:22.361Z,2.16
2023-03-04T10:04:12.353Z,2.21
2023-03-04T10:06:54.763Z,2.25
2023-03-04T10:09:42.742Z,2.29
2023-03-04T10:12:23.809Z,2.31
2023-03-04T10:15:05.785Z,2.29
2023-03-04T10:17:44.337Z,2.28
2023-03-04T10:20:32.304Z,2.28
2023-03-04T10:23:20.348Z,2.29
2023-03-04T10:25:57.556Z,2.30
2023-03-04T10:28:36.301Z,2.31
2023-03-04T10:31:28.589Z,2.31
2023-03-04T10:34:05.322Z,2.30
2023-03-04T10:36:55.954Z,2.31
2023-03-04T10:39:37.090Z,2.30
2023-03-04T10:42:37.909Z,2.27
2023-03-04T10:45:27.955Z,2.28
2023-03-04T10:48:04.453Z,2.30
2023-03-04T10:50:41.013Z,2.31
2023-03-04T10:53:34.727Z,2.32
2023-03-04T10:56:38.991Z,2.33
2023-03-04T10:59:45.734Z,2.35
2023-03-04T11:02:29.436Z,2.32
2023-03-04T11:05:25.482Z,2.31
2023-03-04T11:08:03.977Z,2.31
2023-03-04T11:10:45.899Z,2.31
2023-03-04T11:13:25.899Z,2.32
2023-03-04T11:16:08.192Z,2.32
2023-03-04T11:18:52.155Z,2.29
2023-03-04T11:21:40.160Z,2.27
2023-03-04T11:24:29.288Z,2.26
2023-03-04T11:27:18.787Z,2.27
2023-03-04T11:30:02.376Z,2.28
2023-03-04T11:32:45.749Z,2.26
2023-03-04T11:35:34.263Z,2.26
2023-03-04T11:38:20.874Z,2.28
2023-03-04T11:41:01.694Z,2.27
2023-03-04T11:43:43.493Z,2.24
2023-03-04T11:47:19.408Z,2.18
2023-03-04T11:50:32.590Z,2.11
2023-03-04T11:53:46.007Z,2.09
2023-03-04T11:56:47.192Z,2.08
2023-03-04T12:00:04.059Z,2.09
2023-03-04T12:03:13.084Z,2.09
2023-03-04T12:06:07.163Z,2.08
2023-03-04T12:09:11.169Z,2.07
2023-03-04T12:12:05.333Z,2.05
2023-03-04T12:14:50.284Z,2.04
2023-03-04T12:18:00.942Z,2.03
2023-03-04T12:21:04.104Z,2.01
2023-03-04T12:24:12.690Z,1.98
2023-03-04T12:26:59.507Z,1.96
2023-03-04T12:29:47.553Z,1.96
2023-03-04T12:32:37.763Z,1.97
2023-03-04T12:35:53.848Z,1.97
2023-03-04T12:38:51.180Z,1.98
2023-03-04T12:41:48.671Z,1.99
2023-03-04T12:44:26.354Z,2.02
2023-03-04T12:47:38.522Z,2.02
2023-03-04T12:50:43.029Z,2.03
2023-03-04T12:53:32.980Z,2.04
2023-03-04T12:56:21.092Z,2.06
2023-03-04T12:58:58.182Z,2.07
2023-03-04T13:01:46.583Z,2.08
2023-03-04T13:04:35.976Z,2.08
2023-03-04T13:07:35.171Z,2.09
2023-03-04T13:10:18.746Z,2.13
2023-03-04T13:12:58.129Z,2.18
2023-03-04T13:15:40.049Z,2.22
2023-03-04T13:18:39.604Z,2.24
2023-03-04T13:21:29.501Z,2.25
2023-03-04T13:24:57.738Z,2.26
2023-03-04T13:28:07.006Z,2.30
2023-03-04T13:31:21.876Z,2.32
2023-03-04T13:34:54.093Z,2.35
2023-03-04T13:37:37.750Z,2.36
2023-03-04T13:40:39.579Z,2.37
2023-03-04T13:43:43.284Z,2.38
2023-03-04T13:46:48.284Z,2.39
2023-03-04T13:49:27.821Z,2.41
2023-03-04T13:52:44.567Z,2.43
2023-03-04T13:55:44.307Z,2.44
2023-03-04T13:58:29.326Z,2.44
2023-03-04T14:01:07.195Z,2.45
2023-03-04T14:03:44.988Z,2.46
2023-03-04T14:06:27.411Z,2.48
2023-03-04T14:09:16.071Z,2.48
2023-03-04T14:11:55.050Z,2.47
2023-03-04T14:14:43.949Z,2.47
2023-03-04T14:17:26.820Z,2.47
2023-03-04T14:20:06.917Z,2.48
2023-03-04T14:22:46.345Z,2.47
2023-03-04T14:25:34.338Z,2.46
2023-03-04T14:28:17.719Z,2.44
2023-03-04T14:31:00.760Z,2.42
2023-03-04T14:33:37.906Z,2.41
2023-03-04T14:36:26.064Z,2.40
2023-03-04T14:39:07.417Z,2.40
2023-03-04T14:41:48.190Z,2.40
2023-03-04T14:44:38.710Z,2.40
2023-03-04T14:47:24.785Z,2.38
2023-03-04T14:50:07.031Z,2.36
2023-03-04T14:52:46.566Z,2.36
2023-03-04T14:55:30.973Z,2.37
2023-03-04T14:58:24.549Z,2.36
2023-03-04T15:01:20.033Z,2.35
2023-03-04T15:04:04.409Z,2.34
2023-03-04T15:06:50.512Z,2.34
2023-03-04T15:09:29.583Z,2.36
2023-03-04T15:12:10.975Z,2.37
2023-03-04T15:14:55.040Z,2.38
2023-03-04T15:17:40.575Z,2.38
2023-03-04T15:20:31.318Z,2.39
2023-03-04T15:23:14.724Z,2.40
2023-03-04T15:25:54.926Z,2.41
2023-03-04T15:28:37.893Z,2.43
2023-03-04T15:31:23.384Z,2.44
2023-03-04T15:33:59.909Z,2.45
2023-03-04T15:36:36.335Z,2.45
2023-03-04T15:39:18.163Z,2.44
2023-03-04T15:41:52.889Z,2.44
2023-03-04T15:44:29.562Z,2.43
2023-03-04T15:47:08.843Z,2.41
2023-03-04T15:49:47.730Z,2.41
2023-03-04T15:52:26.319Z,2.41
2023-03-04T15:55:03.216Z,2.41
2023-03-04T15:57:39.784Z,2.40
2023-03-04T16:00:19.841Z,2.40
2023-03-04T16:02:56.200Z,2.39
2023-03-04T16:05:32.726Z,2.40
2023-03-04T16:08:11.481Z,2.40
2023-03-04T16:10:48.882Z,2.40
2023-03-04T16:13:26.970Z,2.41
2023-03-04T16:16:03.519Z,2.41
2023-03-04T16:18:40.622Z,2.42
2023-03-04T16:21:23.277Z,2.43
2023-03-04T16:24:00.538Z,2.44
2023-03-04T16:26:37.951Z,2.46
2023-03-04T16:29:15.420Z,2.47
2023-03-04T16:31:51.740Z,2.48
2023-03-04T16:34:28.563Z,2.48
2023-03-04T16:37:14.520Z,2.49
2023-03-04T16:39:51.629Z,2.50
2023-03-04T16:42:27.989Z,2.52
2023-03-04T16:45:04.938Z,2.53
2023-03-04T16:47:41.231Z,2.54
2023-03-04T16:50:21.412Z,2.55
2023-03-04T16:52:58.686Z,2.57
2023-03-04T16:55:38.568Z,2.57
2023-03-04T16:58:16.722Z,2.58
2023-03-04T17:00:53.600Z,2.58
2023-03-04T17:03:29.964Z,2.57
2023-03-04T17:06:07.029Z,2.58
2023-03-04T17:08:43.942Z,2.57
2023-03-04T17:11:24.645Z,2.57
2023-03-04T17:14:01.150Z,2.57
2023-03-04T17:16:37.737Z,2.57
2023-03-04T17:19:14.414Z,2.58
2023-03-04T17:21:50.663Z,2.58
2023-03-04T17:24:27.449Z,2.58
2023-03-04T17:27:04.222Z,2.58
2023-03-04T17:29:40.588Z,2.59
2023-03-04T17:32:16.860Z,2.59
2023-03-04T17:34:54.857Z,2.59
2023-03-04T17:37:31.220Z,2.59
2023-03-04T17:40:14.102Z,2.59
2023-03-04T17:42:50.527Z,2.60
2023-03-04T17:45:26.851Z,2.60
2023-03-04T17:48:03.440Z,2.61
2023-03-04T17:50:39.788Z,2.61
2023-03-04T17:53:16.481Z,2.62
2023-03-04T17:55:58.243Z,2.63
2023-03-04T17:58:37.448Z,2.65
2023-03-04T18:01:22.238Z,2.66
2023-03-04T18:03:59.273Z,2.67
2023-03-04T18:06:35.578Z,2.68
2023-03-04T18:09:12.280Z,2.69
2023-03-04T18:11:48.752Z,2.70
2023-03-04T18:14:25.352Z,2.72
2023-03-04T18:17:01.893Z,2.73
2023-03-04T18:19:38.267Z,2.74
2023-03-04T18:22:14.829Z,2.74
2023-03-04T18:24:51.629Z,2.75
2023-03-04T18:27:28.374Z,2.74
2023-03-04T18:30:18.074Z,2.73
2023-03-04T18:32:55.179Z,2.71
2023-03-04T18:35:32.022Z,2.70
2023-03-04T18:38:15.925Z,2.68
2023-03-04T18:40:53.271Z,2.66
2023-03-04T18:43:30.422Z,2.65
2023-03-04T18:46:23.718Z,2.64
2023-03-04T18:49:06.093Z,2.63
2023-03-04T18:51:42.667Z,2.63
2023-03-04T18:54:19.532Z,2.62
2023-03-04T18:57:02.245Z,2.63
2023-03-04T18:59:45.860Z,2.62
2023-03-04T19:02:31.848Z,2.62
2023-03-04T19:05:15.486Z,2.62
2023-03-04T19:07:52.340Z,2.62
2023-03-04T19:10:29.685Z,2.62
2023-03-04T19:13:06.725Z,2.62
2023-03-04T19:15:43.093Z,2.63
2023-03-04T19:18:22.740Z,2.64
2023-03-04T19:21:03.688Z,2.65
2023-03-04T19:23:41.913Z,2.65
2023-03-04T19:26:18.207Z,2.65
2023-03-04T19:28:54.646Z,2.66
2023-03-04T19:31:31.345Z,2.65
2023-03-04T19:34:08.923Z,2.65
2023-03-04T19:36:45.589Z,2.65
2023-03-04T19:39:22.163Z,2.65
2023-03-04T19:41:58.418Z,2.65
2023-03-04T19:44:35.276Z,2.65
2023-03-04T19:47:12.303Z,2.65
2023-03-04T19:49:48.850Z,2.66
2023-03-04T19:52:25.726Z,2.67
2023-03-04T19:55:02.193Z,2.67
2023-03-04T19:57:40.718Z,2.69
2023-03-04T20:00:22.091Z,2.70
2023-03-04T20:03:01.853Z,2.72
2023-03-04T20:05:39.185Z,2.73
2023-03-04T20:08:15.589Z,2.74
2023-03-04T20:10:52.772Z,2.77
2023-03-04T20:13:29.410Z,2.78
2023-03-04T20:16:10.838Z,2.80
2023-03-04T20:18:47.749Z,2.82
2023-03-04T20:21:24.472Z,2.83
2023-03-04T20:24:02.295Z,2.85
2023-03-04T20:26:39.619Z,2.86
2023-03-04T20:29:16.142Z,2.89
2023-03-04T20:31:52.627Z,2.91
2023-03-04T20:34:29.271Z,2.92
2023-03-04T20:37:05.740Z,2.85
2023-03-04T20:39:42.208Z,2.76
2023-03-04T20:42:19.077Z,2.67
2023-03-04T20:44:55.457Z,2.59
2023-03-04T20:47:32.435Z,2.50
2023-03-04T20:50:10.727Z,2.42
2023-03-04T20:52:48.451Z,2.33
2023-03-04T20:55:25.264Z,2.28
2023-03-04T20:58:01.992Z,2.21
2023-03-04T21:00:38.451Z,2.18
2023-03-04T21:03:15.006Z,2.14
2023-03-04T21:05:51.574Z,2.10
2023-03-04T21:08:28.167Z,2.06
2023-03-04T21:11:04.597Z,2.03
2023-03-04T21:13:43.169Z,2.00
2023-03-04T21:16:21.424Z,1.98
2023-03-04T21:18:58.350Z,1.96
2023-03-04T21:21:34.915Z,1.95
2023-03-04T21:24:16.603Z,1.94
2023-03-04T21:26:53.487Z,1.92
2023-03-04T21:29:31.270Z,1.91
2023-03-04T21:32:23.726Z,1.91
2023-03-04T21:35:00.974Z,1.91
2023-03-04T21:37:37.473Z,1.91
2023-03-04T21:40:17.768Z,1.91
2023-03-04T21:42:54.197Z,1.91
2023-03-04T21:45:32.213Z,1.91
2023-03-04T21:48:09.322Z,1.92
2023-03-04T21:50:45.667Z,1.93
2023-03-04T21:53:23.729Z,1.92
2023-03-04T21:56:00.711Z,1.93
2023-03-04T21:58:41.734Z,1.93
2023-03-04T22:01:21.998Z,1.94
2023-03-04T22:03:58.527Z,1.94
2023-03-04T22:06:36.370Z,1.93
2023-03-04T22:09:13.330Z,1.93
2023-03-04T22:11:49.810Z,1.93
2023-03-04T22:14:27.810Z,1.92
2023-03-04T22:17:04.384Z,1.92
2023-03-04T22:19:40.993Z,1.91
2023-03-04T22:22:19.210Z,1.90
2023-03-04T22:24:56.134Z,1.90
2023-03-04T22:27:33.334Z,1.89
2023-03-04T22:30:13.890Z,1.89
2023-03-04T22:32:52.211Z,1.88
2023-03-04T22:35:28.655Z,1.87
2023-03-04T22:38:05.160Z,1.85
2023-03-04T22:40:41.616Z,1.85
2023-03-04T22:43:18.117Z,1.84
2023-03-04T22:45:55.649Z,1.83
2023-03-04T23:17:23.722Z,1.69
2023-03-04T23:20:00.907Z,1.68
2023-03-04T23:22:37.586Z,1.68
2023-03-04T23:25:15.644Z,1.67
2023-03-04T23:27:51.951Z,1.66
2023-03-04T23:30:28.877Z,1.65
2023-03-04T23:33:05.503Z,1.63
2023-03-04T23:35:42.207Z,1.61
2023-03-04T23:38:18.540Z,1.61
2023-03-04T23:40:54.825Z,1.61
2023-03-04T23:43:32.096Z,1.59
2023-03-04T23:46:11.670Z,1.59
2023-03-04T23:48:48.916Z,1.57
2023-03-04T23:51:28.747Z,1.56
2023-03-04T23:54:05.614Z,1.56
2023-03-04T23:56:42.525Z,1.55
2023-03-04T23:59:19.591Z,1.53
